Terminal Aerodrome Forecast
Issued by NWS

Home | Current Version | Previous Version | Text Only | Print | Product List | Glossary On
Versions: 1 2 3 4 5 6 7 8 9 10 11 12 13 14 15
000
FTUS43 KAPX 291741
TAFMBL
TAF
KMBL 291741Z 2918/3018 19020G32KT 1 1/2SM -SN OVC025
     FM292000 20017G30KT P6SM OVC025
     FM292300 25018G27KT 5SM -RASN OVC015
     FM300300 28018G28KT P6SM -SN OVC030
     FM300700 30017G26KT P6SM SCT030
      AMD LTD TO CLD VIS AND WIND=

USA.gov is the U.S. government's official web portal to all federal, state and local government web resources and services.